createdAt,value
2018-02-10T00:00:01.018Z,62.67
2018-02-10T00:02:28.521Z,73.10
2018-02-10T00:04:57.019Z,57.50
2018-02-10T00:07:24.538Z,58.92
2018-02-10T00:09:52.026Z,61.00
2018-02-10T00:12:20.399Z,68.07
2018-02-10T00:14:47.906Z,64.25
2018-02-10T00:17:15.499Z,62.25
2018-02-10T00:19:43.053Z,60.65
2018-02-10T00:22:10.619Z,59.22
2018-02-10T00:24:38.245Z,55.38
2018-02-10T00:27:05.823Z,63.03
2018-02-10T00:29:33.314Z,62.03
2018-02-10T00:32:01.557Z,59.42
2018-02-10T00:34:29.083Z,55.12
2018-02-10T00:36:56.632Z,54.80
2018-02-10T00:39:24.175Z,60.38
2018-02-10T00:41:51.837Z,57.60
2018-02-10T00:44:20.105Z,57.62
2018-02-10T00:46:48.373Z,56.20
2018-02-10T00:49:15.857Z,58.60
2018-02-10T00:51:43.379Z,63.35
2018-02-10T00:54:10.962Z,57.05
2018-02-10T00:56:39.229Z,56.92
2018-02-10T00:59:06.714Z,50.80
2018-02-10T01:01:34.197Z,62.13
2018-02-10T01:04:01.677Z,57.47
2018-02-10T01:06:29.190Z,52.95
2018-02-10T01:08:56.760Z,58.35
2018-02-10T01:11:24.249Z,57.17
2018-02-10T01:13:51.797Z,56.42
2018-02-10T01:16:19.302Z,49.08
2018-02-10T01:18:47.798Z,49.72
2018-02-10T01:21:16.252Z,52.17
2018-02-10T01:23:43.757Z,50.95
2018-02-10T01:26:11.243Z,52.03
2018-02-10T01:28:38.843Z,40.55
2018-02-10T01:31:07.129Z,44.25
2018-02-10T01:33:34.866Z,30.75
2018-02-10T01:36:02.357Z,43.35
2018-02-10T01:38:29.846Z,46.78
2018-02-10T01:40:57.323Z,44.72
2018-02-10T01:43:25.270Z,41.30
2018-02-10T01:45:52.767Z,41.42
2018-02-10T01:48:20.260Z,43.85
2018-02-10T01:50:48.529Z,42.85
2018-02-10T01:53:16.093Z,45.88
2018-02-10T01:55:44.345Z,40.92
2018-02-10T01:58:12.070Z,38.15
2018-02-10T02:00:39.878Z,37.60
2018-02-10T02:03:07.382Z,42.47
2018-02-10T02:05:34.857Z,37.17
2018-02-10T02:08:02.348Z,37.42
2018-02-10T02:10:29.842Z,33.65
2018-02-10T02:12:57.322Z,30.77
2018-02-10T02:15:25.653Z,29.65
2018-02-10T02:17:53.151Z,28.58
2018-02-10T02:20:20.625Z,28.35
2018-02-10T02:22:48.113Z,23.58
2018-02-10T02:25:15.609Z,26.10
2018-02-10T02:27:43.099Z,23.83
2018-02-10T02:30:11.628Z,21.73
2018-02-10T02:32:39.125Z,23.40
2018-02-10T02:35:06.642Z,20.17
2018-02-10T02:37:34.345Z,20.23
2018-02-10T02:40:01.907Z,19.15
2018-02-10T02:42:29.420Z,20.45
2018-02-10T02:44:56.902Z,24.48
2018-02-10T02:47:25.535Z,21.83
2018-02-10T02:49:53.034Z,23.02
2018-02-10T02:52:21.289Z,20.70
2018-02-10T02:54:48.789Z,20.42
2018-02-10T02:57:16.273Z,21.35
2018-02-10T02:59:43.745Z,18.62
2018-02-10T03:02:11.254Z,17.98
2018-02-10T03:04:39.490Z,20.48
2018-02-10T03:07:07.093Z,21.70
2018-02-10T03:09:34.593Z,24.48
2018-02-10T03:12:02.080Z,25.23
2018-02-10T03:14:29.576Z,25.50
2018-02-10T03:16:57.062Z,25.08
2018-02-10T03:19:24.595Z,21.90
2018-02-10T03:21:52.112Z,25.35
2018-02-10T03:24:19.598Z,21.40
2018-02-10T03:26:47.851Z,23.10
2018-02-10T03:29:15.681Z,34.70
2018-02-10T03:31:43.205Z,24.33
2018-02-10T03:34:11.492Z,25.45
2018-02-10T03:36:39.896Z,24.00
2018-02-10T03:39:07.449Z,29.15
2018-02-10T03:41:34.947Z,25.75
2018-02-10T03:44:02.425Z,26.08
2018-02-10T03:46:30.746Z,29.42
2018-02-10T03:48:58.235Z,25.00
2018-02-10T03:51:25.725Z,20.37
2018-02-10T03:53:54.028Z,22.77
2018-02-10T03:56:21.505Z,25.25
2018-02-10T03:58:49.157Z,25.37
2018-02-10T04:01:16.713Z,23.33
2018-02-10T04:03:44.201Z,25.90
2018-02-10T04:06:11.685Z,18.87
2018-02-10T04:08:39.188Z,26.87
2018-02-10T04:11:06.669Z,25.25
2018-02-10T04:13:34.165Z,20.27
2018-02-10T04:16:02.574Z,22.15
2018-02-10T04:18:30.327Z,18.90
2018-02-10T04:20:57.869Z,23.20
2018-02-10T04:23:26.233Z,23.15
2018-02-10T04:25:53.716Z,23.17
2018-02-10T04:28:21.995Z,16.65
2018-02-10T04:30:50.239Z,19.20
2018-02-10T04:33:17.739Z,16.25
2018-02-10T04:35:45.493Z,20.30
2018-02-10T04:38:13.737Z,22.75
2018-02-10T04:40:41.209Z,25.52
2018-02-10T04:43:09.511Z,17.40
2018-02-10T04:45:36.989Z,20.55
2018-02-10T04:48:04.472Z,20.52
2018-02-10T04:50:31.981Z,20.75
2018-02-10T04:53:00.238Z,16.83
2018-02-10T04:55:27.714Z,15.30
2018-02-10T04:57:56.022Z,17.17
2018-02-10T05:00:23.505Z,17.02
2018-02-10T05:02:50.985Z,22.00
2018-02-10T05:05:18.487Z,17.48
2018-02-10T05:07:45.982Z,20.45
2018-02-10T05:10:13.458Z,18.20
2018-02-10T05:12:41.255Z,18.05
2018-02-10T05:15:09.546Z,16.08
2018-02-10T05:17:37.033Z,24.42
2018-02-10T05:20:04.672Z,21.55
2018-02-10T05:22:32.174Z,22.08
2018-02-10T05:24:59.649Z,19.30
2018-02-10T05:27:27.945Z,24.58
2018-02-10T05:29:55.644Z,16.20
2018-02-10T05:32:23.141Z,23.25
2018-02-10T05:34:50.950Z,28.42
2018-02-10T05:37:18.482Z,24.83
2018-02-10T05:39:45.951Z,19.40
2018-02-10T05:42:13.481Z,18.52
2018-02-10T05:44:41.156Z,21.58
2018-02-10T05:47:08.819Z,24.20
2018-02-10T05:49:36.637Z,19.10
2018-02-10T05:52:04.251Z,33.42
2018-02-10T05:54:31.758Z,23.87
2018-02-10T05:56:59.340Z,25.40
2018-02-10T05:59:26.829Z,26.15
2018-02-10T06:01:54.465Z,22.20
2018-02-10T06:04:22.026Z,24.83
2018-02-10T06:06:49.509Z,24.98
2018-02-10T06:09:17.758Z,20.08
2018-02-10T06:11:45.253Z,22.05
2018-02-10T06:14:12.766Z,25.88
2018-02-10T06:16:40.262Z,23.92
2018-02-10T06:19:07.822Z,21.50
2018-02-10T06:21:35.270Z,17.98
2018-02-10T06:24:03.516Z,25.17
2018-02-10T06:26:31.218Z,22.62
2018-02-10T06:28:58.932Z,22.23
2018-02-10T06:31:27.232Z,23.10
2018-02-10T06:33:54.925Z,23.08
2018-02-10T06:36:23.171Z,25.12
2018-02-10T06:38:50.879Z,25.65
2018-02-10T06:41:18.422Z,25.17
2018-02-10T06:43:45.978Z,27.02
2018-02-10T06:46:14.567Z,24.90
2018-02-10T06:48:42.096Z,23.35
2018-02-10T06:51:09.739Z,13.90
2018-02-10T06:53:37.225Z,25.75
2018-02-10T06:58:38.578Z,28.08
2018-02-10T07:01:06.278Z,20.15
2018-02-10T07:03:33.761Z,18.40
2018-02-10T07:06:02.193Z,16.87
2018-02-10T07:08:30.867Z,20.42
2018-02-10T07:10:58.406Z,16.58
2018-02-10T07:13:25.886Z,16.17
2018-02-10T07:15:53.368Z,14.05
2018-02-10T07:18:21.644Z,15.52
2018-02-10T07:20:49.966Z,18.42
2018-02-10T07:23:17.441Z,15.05
2018-02-10T07:25:45.106Z,22.48
2018-02-10T07:28:12.610Z,13.38
2018-02-10T07:30:40.854Z,26.95
2018-02-10T07:33:08.347Z,12.35
2018-02-10T07:35:35.829Z,23.35
2018-02-10T07:38:03.301Z,18.60
2018-02-10T07:40:30.797Z,15.30
2018-02-10T07:42:58.366Z,18.15
2018-02-10T07:45:26.623Z,12.80
2018-02-10T07:47:54.118Z,19.00
2018-02-10T07:50:21.594Z,20.58
2018-02-10T07:52:49.837Z,22.87
2018-02-10T07:55:18.101Z,17.02
2018-02-10T07:57:46.342Z,21.42
2018-02-10T08:00:13.825Z,20.48
2018-02-10T08:02:41.321Z,27.42
2018-02-10T08:05:09.682Z,20.37
2018-02-10T08:07:37.177Z,14.18
2018-02-10T08:10:04.698Z,22.65
2018-02-10T08:12:32.221Z,22.73
2018-02-10T08:14:59.701Z,20.10
2018-02-10T08:17:27.201Z,23.65
2018-02-10T08:19:54.681Z,14.10
2018-02-10T08:22:22.161Z,12.35
2018-02-10T08:24:49.675Z,13.50
2018-02-10T08:27:17.161Z,23.98
2018-02-10T08:29:44.648Z,13.20
2018-02-10T08:32:12.290Z,9.50
2018-02-10T08:34:39.934Z,12.57
2018-02-10T08:37:07.412Z,13.13
2018-02-10T08:39:34.945Z,16.67
2018-02-10T08:42:02.421Z,18.30
2018-02-10T08:44:29.893Z,11.35
2018-02-10T08:46:57.398Z,11.18
2018-02-10T08:49:24.877Z,15.95
2018-02-10T08:51:52.349Z,16.10
2018-02-10T08:54:20.003Z,11.35
2018-02-10T08:56:47.509Z,15.60
2018-02-10T08:59:15.758Z,14.93
2018-02-10T09:01:43.251Z,9.35
2018-02-10T09:04:11.508Z,14.98
2018-02-10T09:06:39.124Z,11.63
2018-02-10T09:09:06.645Z,12.93
2018-02-10T09:11:34.882Z,17.42
2018-02-10T09:14:02.365Z,13.52
2018-02-10T09:16:30.026Z,14.05
2018-02-10T09:18:57.722Z,9.55
2018-02-10T09:21:25.222Z,8.45
2018-02-10T09:23:52.715Z,11.85
2018-02-10T09:26:20.990Z,16.23
2018-02-10T09:28:48.470Z,16.87
2018-02-10T09:31:16.763Z,12.48
2018-02-10T09:33:44.346Z,15.70
2018-02-10T09:36:11.825Z,11.57
2018-02-10T09:38:39.340Z,9.52
2018-02-10T09:41:07.596Z,9.43
2018-02-10T09:43:36.117Z,13.95
2018-02-10T09:46:03.754Z,12.43
2018-02-10T09:48:31.236Z,16.95
2018-02-10T09:50:58.706Z,12.90
2018-02-10T09:53:46.234Z,10.90
2018-02-10T09:56:13.820Z,12.25
2018-02-10T09:58:41.557Z,11.80
2018-02-10T10:01:09.066Z,15.75
2018-02-10T10:03:37.345Z,6.18
2018-02-10T10:06:05.663Z,11.05
2018-02-10T10:08:33.117Z,18.10
2018-02-10T10:11:00.598Z,12.07
2018-02-10T10:13:28.301Z,7.47
2018-02-10T10:15:56.549Z,6.10
2018-02-10T10:18:24.037Z,8.32
2018-02-10T10:20:51.601Z,12.80
2018-02-10T10:23:19.085Z,7.22
2018-02-10T10:25:46.585Z,16.45
2018-02-10T10:28:14.069Z,16.70
2018-02-10T10:30:42.317Z,9.02
2018-02-10T10:33:22.021Z,9.50
2018-02-10T10:35:57.026Z,6.53
2018-02-10T10:38:25.513Z,9.30
2018-02-10T10:40:53.256Z,12.52
2018-02-10T10:43:21.533Z,13.48
2018-02-10T10:45:49.821Z,9.00
2018-02-10T10:48:25.678Z,11.88
2018-02-10T10:50:54.361Z,9.48
2018-02-10T10:53:22.723Z,13.05
2018-02-10T10:55:51.177Z,11.77
2018-02-10T10:58:18.724Z,12.43
2018-02-10T11:00:46.942Z,13.00
2018-02-10T11:03:20.726Z,10.60
2018-02-10T11:05:48.869Z,12.65
2018-02-10T11:08:18.197Z,11.73
2018-02-10T11:13:34.496Z,14.80
2018-02-10T11:16:08.778Z,11.48
2018-02-10T11:18:37.209Z,6.80
2018-02-10T11:21:30.033Z,11.75
2018-02-10T11:23:58.636Z,9.90
2018-02-10T11:26:27.785Z,10.17
2018-02-10T11:28:57.177Z,9.80
2018-02-10T11:31:27.286Z,10.90
2018-02-10T11:33:55.105Z,11.83
2018-02-10T11:36:22.842Z,7.73
2018-02-10T11:38:51.655Z,13.47
2018-02-10T11:41:20.260Z,8.37
2018-02-10T11:43:48.418Z,8.70
2018-02-10T11:46:17.065Z,8.20
2018-02-10T11:48:45.457Z,10.27
2018-02-10T11:51:14.118Z,7.80
2018-02-10T11:53:50.464Z,10.48
2018-02-10T11:56:19.579Z,9.63
2018-02-10T11:58:47.624Z,9.25
2018-02-10T12:01:15.913Z,12.45
2018-02-10T12:03:44.683Z,10.70
2018-02-10T12:06:12.778Z,8.48
2018-02-10T12:08:40.265Z,10.32
2018-02-10T12:11:08.874Z,7.55
2018-02-10T12:13:37.207Z,13.80
2018-02-10T12:16:04.693Z,10.52
2018-02-10T12:18:32.220Z,12.02
2018-02-10T12:20:59.704Z,9.45
2018-02-10T12:23:27.949Z,17.25
2018-02-10T12:25:55.457Z,10.83
2018-02-10T12:28:23.062Z,9.75
2018-02-10T12:30:50.577Z,19.57
2018-02-10T12:33:18.987Z,12.68
2018-02-10T12:35:47.440Z,7.87
2018-02-10T12:38:14.998Z,13.25
2018-02-10T12:40:42.731Z,9.05
2018-02-10T12:43:11.001Z,8.75
2018-02-10T12:45:38.529Z,11.52
2018-02-10T12:48:12.266Z,11.82
2018-02-10T12:50:39.797Z,14.38
2018-02-10T12:53:07.459Z,10.40
2018-02-10T12:55:35.114Z,12.77
2018-02-10T12:58:02.718Z,11.48
2018-02-10T13:00:30.436Z,9.68
2018-02-10T13:02:58.107Z,6.22
2018-02-10T13:05:25.862Z,6.80
2018-02-10T13:07:53.369Z,6.30
2018-02-10T13:10:21.670Z,10.07
2018-02-10T13:12:49.205Z,5.83
2018-02-10T13:15:16.920Z,6.07
2018-02-10T13:17:45.225Z,5.30
2018-02-10T13:20:12.729Z,9.80
2018-02-10T13:22:40.351Z,5.07
2018-02-10T13:25:08.621Z,7.80
2018-02-10T13:27:36.200Z,6.23
2018-02-10T13:30:03.759Z,7.20
2018-02-10T13:32:32.005Z,5.15
2018-02-10T13:34:59.519Z,6.03
2018-02-10T13:37:27.077Z,5.43
2018-02-10T13:39:54.656Z,5.63
2018-02-10T13:42:22.296Z,8.70
2018-02-10T13:44:49.806Z,7.25
2018-02-10T13:47:17.295Z,4.60
2018-02-10T13:49:45.546Z,4.37
2018-02-10T13:52:13.042Z,5.93
2018-02-10T13:54:40.720Z,6.73
2018-02-10T13:57:08.310Z,3.53
2018-02-10T13:59:35.915Z,5.60
2018-02-10T14:02:03.586Z,10.10
2018-02-10T14:04:31.109Z,9.90
2018-02-10T14:06:58.632Z,4.43
2018-02-10T14:09:26.157Z,5.50
2018-02-10T14:11:53.742Z,5.23
2018-02-10T14:14:21.503Z,4.50
2018-02-10T14:16:49.217Z,6.57
2018-02-10T14:19:16.829Z,5.50
2018-02-10T14:21:44.331Z,6.20
2018-02-10T14:24:11.995Z,4.73
2018-02-10T14:26:39.844Z,8.10
2018-02-10T14:29:07.565Z,5.32
2018-02-10T14:31:35.066Z,4.00
2018-02-10T14:34:03.026Z,5.60
2018-02-10T14:36:30.648Z,5.50
2018-02-10T14:38:59.166Z,6.67
2018-02-10T14:41:28.433Z,11.97
2018-02-10T14:43:55.959Z,8.43
2018-02-10T14:46:23.678Z,4.90
2018-02-10T14:48:51.233Z,11.40
2018-02-10T14:51:19.584Z,9.93
2018-02-10T14:53:47.165Z,6.95
2018-02-10T14:56:14.644Z,6.30
2018-02-10T14:58:42.352Z,6.43
2018-02-10T15:01:10.839Z,5.57
2018-02-10T15:03:38.419Z,9.00
2018-02-10T15:06:06.669Z,7.07
2018-02-10T15:08:34.193Z,5.30
2018-02-10T15:11:01.805Z,5.97
2018-02-10T15:13:29.481Z,4.12
2018-02-10T15:15:57.112Z,4.35
2018-02-10T15:18:25.401Z,5.15
2018-02-10T15:20:52.878Z,4.55
2018-02-10T15:23:21.194Z,4.62
2018-02-10T15:25:48.687Z,8.52
2018-02-10T15:28:16.175Z,4.37
2018-02-10T15:30:56.425Z,6.60
2018-02-10T15:33:36.417Z,6.15
2018-02-10T15:36:03.980Z,5.60
2018-02-10T15:38:31.466Z,5.53
2018-02-10T15:40:58.959Z,10.80
2018-02-10T15:43:27.202Z,10.88
2018-02-10T15:45:54.816Z,11.48
2018-02-10T15:48:22.548Z,8.35
2018-02-10T15:50:50.322Z,8.35
2018-02-10T15:53:18.796Z,5.35
2018-02-10T15:55:46.442Z,7.90
2018-02-10T15:58:14.030Z,11.07
2018-02-10T16:00:41.526Z,6.28
2018-02-10T16:05:43.117Z,5.68
2018-02-10T16:08:10.722Z,5.25
2018-02-10T16:10:40.935Z,6.07
2018-02-10T16:13:09.485Z,7.15
2018-02-10T16:15:36.964Z,9.60
2018-02-10T16:18:04.579Z,8.77
2018-02-10T16:20:32.094Z,8.00
2018-02-10T16:22:59.677Z,11.10
2018-02-10T16:25:27.313Z,13.68
2018-02-10T16:27:55.785Z,8.90
2018-02-10T16:30:23.387Z,8.85
2018-02-10T16:32:50.874Z,9.73
2018-02-10T16:35:18.384Z,17.70
2018-02-10T16:37:47.365Z,10.27
2018-02-10T16:40:14.842Z,7.62
2018-02-10T16:42:43.117Z,4.25
2018-02-10T16:45:11.362Z,6.10
2018-02-10T16:47:38.837Z,7.53
2018-02-10T16:50:07.849Z,11.63
2018-02-10T16:52:36.593Z,10.45
2018-02-10T16:55:04.087Z,12.50
2018-02-10T16:57:32.375Z,7.20
2018-02-10T17:00:00.640Z,7.82
2018-02-10T17:02:28.920Z,10.18
2018-02-10T17:04:56.593Z,10.35
2018-02-10T17:07:24.869Z,7.57
2018-02-10T17:09:52.478Z,7.90
2018-02-10T17:12:20.018Z,9.38
2018-02-10T17:14:47.574Z,9.15
2018-02-10T17:17:16.034Z,11.25
2018-02-10T17:19:43.553Z,11.88
2018-02-10T17:22:11.083Z,8.25
2018-02-10T17:24:38.702Z,9.30
2018-02-10T17:27:07.123Z,10.40
2018-02-10T17:29:34.624Z,8.02
2018-02-10T17:32:03.709Z,7.35
2018-02-10T17:34:31.214Z,9.88
2018-02-10T17:36:58.802Z,10.30
2018-02-10T17:39:26.345Z,11.65
2018-02-10T17:41:53.909Z,12.05
2018-02-10T17:44:21.486Z,8.15
2018-02-10T17:46:49.128Z,7.50
2018-02-10T17:49:17.543Z,9.63
2018-02-10T17:51:45.022Z,11.50
2018-02-10T17:54:12.541Z,17.00
2018-02-10T17:56:40.028Z,9.55
2018-02-10T17:59:08.242Z,10.70
2018-02-10T18:01:36.429Z,9.82
2018-02-10T18:04:06.290Z,11.35
2018-02-10T18:06:33.823Z,15.50
2018-02-10T18:09:01.322Z,14.65
2018-02-10T18:11:28.805Z,10.48
2018-02-10T18:13:57.002Z,9.50
2018-02-10T18:16:24.661Z,15.43
2018-02-10T18:18:52.137Z,12.07
2018-02-10T18:21:19.785Z,18.10
2018-02-10T18:23:48.335Z,13.70
2018-02-10T18:26:15.850Z,12.20
2018-02-10T18:28:44.085Z,13.23
2018-02-10T18:31:11.681Z,10.13
2018-02-10T18:33:39.164Z,8.63
2018-02-10T18:36:06.638Z,21.52
2018-02-10T18:38:35.782Z,10.57
2018-02-10T18:41:03.274Z,8.57
2018-02-10T18:43:31.588Z,7.18
2018-02-10T18:45:59.844Z,10.93
2018-02-10T18:48:27.342Z,5.90
2018-02-10T18:50:57.778Z,8.45
2018-02-10T18:53:28.320Z,8.63
2018-02-10T18:55:56.195Z,14.10
2018-02-10T18:58:23.719Z,11.73
2018-02-10T19:00:51.210Z,12.43
2018-02-10T19:03:18.719Z,7.30
2018-02-10T19:05:46.996Z,12.70
2018-02-10T19:08:15.970Z,14.05
2018-02-10T19:10:43.446Z,12.32
2018-02-10T19:13:11.689Z,13.70
2018-02-10T19:15:39.182Z,10.90
2018-02-10T19:18:07.450Z,11.10
2018-02-10T19:20:35.700Z,10.23
2018-02-10T19:23:03.985Z,11.77
2018-02-10T19:25:31.481Z,12.00
2018-02-10T19:27:59.102Z,11.23
2018-02-10T19:30:27.286Z,9.45
2018-02-10T19:32:55.265Z,15.68
2018-02-10T19:35:23.533Z,8.38
2018-02-10T19:37:53.697Z,14.60
2018-02-10T19:40:21.298Z,10.35
2018-02-10T19:42:48.897Z,13.25
2018-02-10T19:45:17.953Z,14.27
2018-02-10T19:47:45.922Z,11.45
2018-02-10T19:50:13.406Z,10.25
2018-02-10T19:52:42.336Z,13.38
2018-02-10T19:55:09.814Z,10.30
2018-02-10T19:57:37.294Z,8.48
2018-02-10T20:00:04.826Z,11.65
2018-02-10T20:02:33.042Z,12.90
2018-02-10T20:05:00.542Z,12.88
2018-02-10T20:07:28.801Z,10.05
2018-02-10T20:09:57.745Z,14.43
2018-02-10T20:12:25.246Z,17.62
2018-02-10T20:14:54.221Z,8.57
2018-02-10T20:17:21.709Z,10.15
2018-02-10T20:19:49.189Z,8.43
2018-02-10T20:22:17.251Z,8.40
2018-02-10T20:24:44.750Z,10.20
2018-02-10T20:27:12.230Z,10.65
2018-02-10T20:29:40.562Z,13.18
2018-02-10T20:32:08.924Z,12.25
2018-02-10T20:34:36.703Z,5.37
2018-02-10T20:37:04.973Z,10.32
2018-02-10T20:39:32.462Z,8.23
2018-02-10T20:41:59.941Z,13.82
2018-02-10T20:44:28.193Z,6.07
2018-02-10T20:46:55.684Z,17.10
2018-02-10T20:49:23.929Z,16.65
2018-02-10T20:51:51.532Z,10.10
2018-02-10T20:54:19.030Z,15.75
2018-02-10T20:56:46.514Z,14.25
2018-02-10T20:59:13.987Z,10.48
2018-02-10T21:01:41.509Z,13.88
2018-02-10T21:04:09.641Z,8.38
2018-02-10T21:06:37.887Z,15.32
2018-02-10T21:09:05.382Z,10.68
2018-02-10T21:11:32.871Z,9.27
2018-02-10T21:14:00.333Z,7.85
2018-02-10T21:16:27.970Z,7.85
2018-02-10T21:19:00.379Z,11.25
2018-02-10T21:21:30.586Z,8.10
2018-02-10T21:24:03.435Z,5.55
2018-02-10T21:26:35.852Z,8.60
2018-02-10T21:29:08.446Z,8.38
2018-02-10T21:31:39.387Z,8.13
2018-02-10T21:34:07.511Z,10.60
2018-02-10T21:36:34.989Z,9.70
2018-02-10T21:39:02.494Z,11.27
2018-02-10T21:41:30.765Z,7.22
2018-02-10T21:43:58.233Z,10.88
2018-02-10T21:46:26.513Z,10.57
2018-02-10T21:48:54.484Z,6.40
2018-02-10T21:51:22.730Z,13.13
2018-02-10T21:53:50.392Z,9.43
2018-02-10T21:56:18.013Z,11.68
2018-02-10T21:58:45.560Z,11.43
2018-02-10T22:01:13.113Z,7.12
2018-02-10T22:03:40.590Z,8.88
2018-02-10T22:06:08.208Z,10.35
2018-02-10T22:08:35.684Z,7.40
2018-02-10T22:11:03.931Z,8.32
2018-02-10T22:13:31.418Z,9.18
2018-02-10T22:15:59.664Z,9.80
2018-02-10T22:18:27.143Z,10.88
2018-02-10T22:20:56.027Z,7.32
2018-02-10T22:23:23.520Z,8.43
2018-02-10T22:25:50.994Z,7.60
2018-02-10T22:28:18.511Z,6.20
2018-02-10T22:30:47.727Z,8.13
2018-02-10T22:33:15.217Z,12.93
2018-02-10T22:35:42.812Z,5.72
2018-02-10T22:38:10.279Z,9.90
2018-02-10T22:40:37.750Z,7.68
2018-02-10T22:43:06.016Z,7.70
2018-02-10T22:45:33.997Z,11.07
2018-02-10T22:48:02.386Z,7.75
2018-02-10T22:50:29.869Z,6.90
2018-02-10T22:52:57.874Z,5.28
2018-02-10T22:55:25.709Z,11.82
2018-02-10T22:57:53.214Z,5.05
2018-02-10T23:00:20.702Z,6.07
2018-02-10T23:02:48.186Z,7.97
2018-02-10T23:05:15.685Z,6.43
2018-02-10T23:07:43.157Z,6.32
2018-02-10T23:10:11.399Z,4.50
2018-02-10T23:12:38.911Z,5.12
2018-02-10T23:15:06.386Z,4.43
2018-02-10T23:17:33.861Z,8.52
2018-02-10T23:20:01.349Z,5.32
2018-02-10T23:22:28.818Z,2.70
2018-02-10T23:24:57.057Z,4.80
2018-02-10T23:27:24.875Z,4.05
2018-02-10T23:29:53.122Z,4.65
2018-02-10T23:32:20.593Z,3.78
2018-02-10T23:34:48.861Z,3.67
2018-02-10T23:37:17.117Z,2.33
2018-02-10T23:39:44.598Z,3.50
2018-02-10T23:42:12.088Z,3.45
2018-02-10T23:44:39.561Z,3.62
2018-02-10T23:47:07.060Z,3.20
2018-02-10T23:49:35.349Z,3.33
2018-02-10T23:52:02.849Z,3.20
2018-02-10T23:54:30.325Z,4.03
2018-02-10T23:56:57.821Z,3.00
2018-02-10T23:59:25.293Z,2.25
